sensor_id;sensor_type;location;lat;lon;timestamp;P1;durP1;ratioP1;P2;durP2;ratioP2
8544;SDS011;4310;51.054;6.994;2022-07-29T00:00:46;4.10;;;1.60;;
8544;SDS011;4310;51.054;6.994;2022-07-29T00:01:49;3.27;;;1.70;;
8544;SDS011;4310;51.054;6.994;2022-07-29T00:02:54;3.30;;;1.70;;
8544;SDS011;4310;51.054;6.994;2022-07-29T00:03:58;2.55;;;1.60;;
8544;SDS011;4310;51.054;6.994;2022-07-29T00:05:02;3.33;;;1.60;;
8544;SDS011;4310;51.054;6.994;2022-07-29T00:06:06;2.25;;;1.50;;
8544;SDS011;4310;51.054;6.994;2022-07-29T00:07:10;2.90;;;1.70;;
8544;SDS011;4310;51.054;6.994;2022-07-29T00:08:14;2.45;;;1.60;;
8544;SDS011;4310;51.054;6.994;2022-07-29T00:09:18;3.25;;;1.45;;
8544;SDS011;4310;51.054;6.994;2022-07-29T00:10:21;2.52;;;1.30;;
8544;SDS011;4310;51.054;6.994;2022-07-29T00:12:37;4.22;;;1.50;;
8544;SDS011;4310;51.054;6.994;2022-07-29T00:13:41;2.85;;;1.40;;
8544;SDS011;4310;51.054;6.994;2022-07-29T00:14:45;3.47;;;1.60;;
8544;SDS011;4310;51.054;6.994;2022-07-29T00:15:48;3.85;;;1.70;;
8544;SDS011;4310;51.054;6.994;2022-07-29T00:16:52;2.37;;;1.40;;
8544;SDS011;4310;51.054;6.994;2022-07-29T00:17:56;2.02;;;1.27;;
8544;SDS011;4310;51.054;6.994;2022-07-29T00:18:59;2.67;;;1.60;;
8544;SDS011;4310;51.054;6.994;2022-07-29T00:20:04;2.58;;;1.47;;
8544;SDS011;4310;51.054;6.994;2022-07-29T00:21:08;2.70;;;1.62;;
8544;SDS011;4310;51.054;6.994;2022-07-29T00:22:12;3.40;;;1.47;;
8544;SDS011;4310;51.054;6.994;2022-07-29T00:23:16;3.85;;;1.52;;
8544;SDS011;4310;51.054;6.994;2022-07-29T00:25:32;1.95;;;1.60;;
8544;SDS011;4310;51.054;6.994;2022-07-29T00:27:47;3.30;;;1.37;;
8544;SDS011;4310;51.054;6.994;2022-07-29T00:28:51;4.72;;;1.70;;
8544;SDS011;4310;51.054;6.994;2022-07-29T00:29:54;4.20;;;1.70;;
8544;SDS011;4310;51.054;6.994;2022-07-29T00:30:58;2.65;;;1.60;;
8544;SDS011;4310;51.054;6.994;2022-07-29T00:33:14;3.17;;;1.52;;
8544;SDS011;4310;51.054;6.994;2022-07-29T00:34:17;2.12;;;1.52;;
8544;SDS011;4310;51.054;6.994;2022-07-29T00:35:39;3.60;;;1.40;;
8544;SDS011;4310;51.054;6.994;2022-07-29T00:36:50;2.47;;;1.65;;
8544;SDS011;4310;51.054;6.994;2022-07-29T00:37:53;2.95;;;1.50;;
8544;SDS011;4310;51.054;6.994;2022-07-29T00:38:57;2.15;;;1.50;;
8544;SDS011;4310;51.054;6.994;2022-07-29T00:40:01;2.00;;;1.45;;
8544;SDS011;4310;51.054;6.994;2022-07-29T00:41:05;2.87;;;1.50;;
8544;SDS011;4310;51.054;6.994;2022-07-29T00:43:21;5.05;;;1.45;;
8544;SDS011;4310;51.054;6.994;2022-07-29T00:44:24;2.60;;;1.57;;
8544;SDS011;4310;51.054;6.994;2022-07-29T00:45:28;3.02;;;1.50;;
8544;SDS011;4310;51.054;6.994;2022-07-29T00:46:32;2.42;;;1.50;;
8544;SDS011;4310;51.054;6.994;2022-07-29T00:47:36;2.17;;;1.60;;
8544;SDS011;4310;51.054;6.994;2022-07-29T00:48:40;2.72;;;1.60;;
8544;SDS011;4310;51.054;6.994;2022-07-29T00:49:44;3.08;;;1.70;;
8544;SDS011;4310;51.054;6.994;2022-07-29T00:52:00;3.15;;;1.60;;
8544;SDS011;4310;51.054;6.994;2022-07-29T00:53:05;2.37;;;1.30;;
8544;SDS011;4310;51.054;6.994;2022-07-29T00:54:09;2.22;;;1.40;;
8544;SDS011;4310;51.054;6.994;2022-07-29T00:55:13;3.85;;;1.60;;
8544;SDS011;4310;51.054;6.994;2022-07-29T00:56:17;2.10;;;1.40;;
8544;SDS011;4310;51.054;6.994;2022-07-29T00:57:20;4.05;;;1.55;;
8544;SDS011;4310;51.054;6.994;2022-07-29T00:58:24;2.47;;;1.45;;
8544;SDS011;4310;51.054;6.994;2022-07-29T00:59:29;2.22;;;1.52;;
8544;SDS011;4310;51.054;6.994;2022-07-29T01:01:44;2.52;;;1.70;;
8544;SDS011;4310;51.054;6.994;2022-07-29T01:02:48;2.55;;;1.60;;
8544;SDS011;4310;51.054;6.994;2022-07-29T01:03:52;2.45;;;1.50;;
8544;SDS011;4310;51.054;6.994;2022-07-29T01:06:08;2.70;;;1.60;;
8544;SDS011;4310;51.054;6.994;2022-07-29T01:07:12;2.12;;;1.50;;
8544;SDS011;4310;51.054;6.994;2022-07-29T01:08:16;4.08;;;1.90;;
8544;SDS011;4310;51.054;6.994;2022-07-29T01:09:20;2.95;;;1.67;;
8544;SDS011;4310;51.054;6.994;2022-07-29T01:10:25;3.45;;;1.62;;
8544;SDS011;4310;51.054;6.994;2022-07-29T01:11:29;3.05;;;1.60;;
8544;SDS011;4310;51.054;6.994;2022-07-29T01:12:33;2.00;;;1.57;;
8544;SDS011;4310;51.054;6.994;2022-07-29T01:13:37;3.40;;;1.50;;
8544;SDS011;4310;51.054;6.994;2022-07-29T01:14:41;2.72;;;1.65;;
8544;SDS011;4310;51.054;6.994;2022-07-29T01:15:47;3.40;;;1.60;;
8544;SDS011;4310;51.054;6.994;2022-07-29T01:16:52;3.35;;;1.70;;
8544;SDS011;4310;51.054;6.994;2022-07-29T01:17:59;3.00;;;1.57;;
8544;SDS011;4310;51.054;6.994;2022-07-29T01:19:06;3.08;;;1.65;;
8544;SDS011;4310;51.054;6.994;2022-07-29T01:20:12;4.12;;;1.60;;
8544;SDS011;4310;51.054;6.994;2022-07-29T01:21:32;4.17;;;1.52;;
8544;SDS011;4310;51.054;6.994;2022-07-29T01:22:36;2.07;;;1.67;;
8544;SDS011;4310;51.054;6.994;2022-07-29T01:23:45;2.70;;;1.70;;
8544;SDS011;4310;51.054;6.994;2022-07-29T01:26:06;2.30;;;1.50;;
8544;SDS011;4310;51.054;6.994;2022-07-29T01:27:36;3.37;;;1.50;;
8544;SDS011;4310;51.054;6.994;2022-07-29T01:28:47;3.22;;;1.42;;
8544;SDS011;4310;51.054;6.994;2022-07-29T01:29:52;2.77;;;1.67;;
8544;SDS011;4310;51.054;6.994;2022-07-29T01:30:56;2.37;;;1.72;;
8544;SDS011;4310;51.054;6.994;2022-07-29T01:32:02;2.92;;;1.77;;
8544;SDS011;4310;51.054;6.994;2022-07-29T01:33:07;4.28;;;1.65;;
8544;SDS011;4310;51.054;6.994;2022-07-29T01:34:13;3.75;;;1.60;;
8544;SDS011;4310;51.054;6.994;2022-07-29T01:35:18;3.30;;;1.62;;
8544;SDS011;4310;51.054;6.994;2022-07-29T01:36:23;4.83;;;1.80;;
8544;SDS011;4310;51.054;6.994;2022-07-29T01:37:29;3.57;;;1.80;;
8544;SDS011;4310;51.054;6.994;2022-07-29T01:38:33;3.42;;;1.50;;
8544;SDS011;4310;51.054;6.994;2022-07-29T01:39:39;3.75;;;1.80;;
8544;SDS011;4310;51.054;6.994;2022-07-29T01:40:45;3.47;;;1.62;;
8544;SDS011;4310;51.054;6.994;2022-07-29T01:41:49;3.02;;;1.50;;
8544;SDS011;4310;51.054;6.994;2022-07-29T01:42:54;2.25;;;1.70;;
8544;SDS011;4310;51.054;6.994;2022-07-29T01:43:59;4.17;;;1.57;;
8544;SDS011;4310;51.054;6.994;2022-07-29T01:45:06;2.98;;;1.92;;
8544;SDS011;4310;51.054;6.994;2022-07-29T01:46:09;3.83;;;1.90;;
8544;SDS011;4310;51.054;6.994;2022-07-29T01:47:15;5.67;;;1.90;;
8544;SDS011;4310;51.054;6.994;2022-07-29T01:48:19;4.28;;;1.95;;
8544;SDS011;4310;51.054;6.994;2022-07-29T01:49:25;4.15;;;1.85;;
8544;SDS011;4310;51.054;6.994;2022-07-29T01:50:31;4.12;;;1.87;;
8544;SDS011;4310;51.054;6.994;2022-07-29T01:51:36;2.30;;;1.60;;
8544;SDS011;4310;51.054;6.994;2022-07-29T01:52:42;3.67;;;1.70;;
8544;SDS011;4310;51.054;6.994;2022-07-29T01:53:50;5.80;;;1.90;;
8544;SDS011;4310;51.054;6.994;2022-07-29T01:54:55;1.97;;;1.60;;
8544;SDS011;4310;51.054;6.994;2022-07-29T01:55:59;3.00;;;1.80;;
8544;SDS011;4310;51.054;6.994;2022-07-29T01:57:03;2.45;;;1.80;;
8544;SDS011;4310;51.054;6.994;2022-07-29T01:58:08;3.30;;;2.12;;
8544;SDS011;4310;51.054;6.994;2022-07-29T01:59:12;2.65;;;1.72;;
8544;SDS011;4310;51.054;6.994;2022-07-29T02:00:16;4.10;;;1.85;;
8544;SDS011;4310;51.054;6.994;2022-07-29T02:01:20;3.33;;;1.55;;
8544;SDS011;4310;51.054;6.994;2022-07-29T02:02:25;3.37;;;1.60;;
8544;SDS011;4310;51.054;6.994;2022-07-29T02:03:29;2.50;;;1.70;;
8544;SDS011;4310;51.054;6.994;2022-07-29T02:04:35;3.95;;;1.80;;
8544;SDS011;4310;51.054;6.994;2022-07-29T02:05:40;2.80;;;1.70;;
8544;SDS011;4310;51.054;6.994;2022-07-29T02:06:44;2.33;;;1.70;;
8544;SDS011;4310;51.054;6.994;2022-07-29T02:09:00;5.03;;;1.80;;
8544;SDS011;4310;51.054;6.994;2022-07-29T02:10:06;4.83;;;1.70;;
8544;SDS011;4310;51.054;6.994;2022-07-29T02:11:10;2.00;;;1.60;;
8544;SDS011;4310;51.054;6.994;2022-07-29T02:12:14;2.22;;;1.40;;
8544;SDS011;4310;51.054;6.994;2022-07-29T02:13:19;2.77;;;1.67;;
8544;SDS011;4310;51.054;6.994;2022-07-29T02:14:24;2.90;;;1.60;;
8544;SDS011;4310;51.054;6.994;2022-07-29T02:15:29;2.98;;;1.57;;
8544;SDS011;4310;51.054;6.994;2022-07-29T02:17:45;4.20;;;1.70;;
8544;SDS011;4310;51.054;6.994;2022-07-29T02:18:51;5.50;;;1.80;;
8544;SDS011;4310;51.054;6.994;2022-07-29T02:19:56;3.85;;;1.87;;
8544;SDS011;4310;51.054;6.994;2022-07-29T02:21:00;2.17;;;1.60;;
8544;SDS011;4310;51.054;6.994;2022-07-29T02:22:04;1.90;;;1.50;;
8544;SDS011;4310;51.054;6.994;2022-07-29T02:23:09;3.17;;;1.72;;
8544;SDS011;4310;51.054;6.994;2022-07-29T02:24:13;3.37;;;1.70;;
8544;SDS011;4310;51.054;6.994;2022-07-29T02:25:17;2.67;;;1.52;;
8544;SDS011;4310;51.054;6.994;2022-07-29T02:27:32;1.90;;;1.60;;
8544;SDS011;4310;51.054;6.994;2022-07-29T02:28:38;3.20;;;1.52;;
8544;SDS011;4310;51.054;6.994;2022-07-29T02:29:42;2.40;;;1.60;;
8544;SDS011;4310;51.054;6.994;2022-07-29T02:30:46;1.87;;;1.57;;
8544;SDS011;4310;51.054;6.994;2022-07-29T02:31:51;2.92;;;1.72;;
8544;SDS011;4310;51.054;6.994;2022-07-29T02:32:55;3.00;;;1.70;;
8544;SDS011;4310;51.054;6.994;2022-07-29T02:33:59;1.70;;;1.60;;
8544;SDS011;4310;51.054;6.994;2022-07-29T02:35:05;2.52;;;1.80;;
8544;SDS011;4310;51.054;6.994;2022-07-29T02:36:09;2.47;;;1.80;;
8544;SDS011;4310;51.054;6.994;2022-07-29T02:37:13;4.10;;;1.90;;
8544;SDS011;4310;51.054;6.994;2022-07-29T02:38:18;2.50;;;1.75;;
8544;SDS011;4310;51.054;6.994;2022-07-29T02:39:40;2.90;;;1.77;;
8544;SDS011;4310;51.054;6.994;2022-07-29T02:40:45;2.85;;;1.72;;
8544;SDS011;4310;51.054;6.994;2022-07-29T02:41:50;3.75;;;1.82;;
8544;SDS011;4310;51.054;6.994;2022-07-29T02:42:54;1.95;;;1.52;;
8544;SDS011;4310;51.054;6.994;2022-07-29T02:43:58;6.12;;;1.92;;
8544;SDS011;4310;51.054;6.994;2022-07-29T02:45:04;5.47;;;2.00;;
8544;SDS011;4310;51.054;6.994;2022-07-29T02:46:08;3.92;;;1.98;;
8544;SDS011;4310;51.054;6.994;2022-07-29T02:47:16;2.90;;;1.75;;
8544;SDS011;4310;51.054;6.994;2022-07-29T02:48:19;2.25;;;1.82;;
8544;SDS011;4310;51.054;6.994;2022-07-29T02:51:51;2.67;;;1.62;;
8544;SDS011;4310;51.054;6.994;2022-07-29T02:54:07;4.05;;;2.10;;
8544;SDS011;4310;51.054;6.994;2022-07-29T02:55:13;4.25;;;1.72;;
8544;SDS011;4310;51.054;6.994;2022-07-29T02:56:16;2.17;;;1.70;;
8544;SDS011;4310;51.054;6.994;2022-07-29T02:58:34;4.87;;;1.85;;
8544;SDS011;4310;51.054;6.994;2022-07-29T02:59:39;3.40;;;1.70;;
8544;SDS011;4310;51.054;6.994;2022-07-29T03:00:44;2.52;;;1.57;;
8544;SDS011;4310;51.054;6.994;2022-07-29T03:01:49;3.35;;;1.75;;
8544;SDS011;4310;51.054;6.994;2022-07-29T03:02:54;2.20;;;1.75;;
8544;SDS011;4310;51.054;6.994;2022-07-29T03:04:00;3.08;;;1.75;;
8544;SDS011;4310;51.054;6.994;2022-07-29T03:05:05;4.03;;;1.72;;
8544;SDS011;4310;51.054;6.994;2022-07-29T03:06:10;2.83;;;1.72;;
8544;SDS011;4310;51.054;6.994;2022-07-29T03:07:15;4.47;;;1.80;;
8544;SDS011;4310;51.054;6.994;2022-07-29T03:08:20;2.65;;;1.60;;
8544;SDS011;4310;51.054;6.994;2022-07-29T03:10:37;2.08;;;1.52;;
8544;SDS011;4310;51.054;6.994;2022-07-29T03:11:41;2.47;;;1.75;;
8544;SDS011;4310;51.054;6.994;2022-07-29T03:12:45;2.30;;;1.82;;
8544;SDS011;4310;51.054;6.994;2022-07-29T03:13:50;2.25;;;1.57;;
8544;SDS011;4310;51.054;6.994;2022-07-29T03:14:53;2.87;;;1.60;;
8544;SDS011;4310;51.054;6.994;2022-07-29T03:15:57;3.35;;;1.85;;
8544;SDS011;4310;51.054;6.994;2022-07-29T03:17:01;3.47;;;1.60;;
8544;SDS011;4310;51.054;6.994;2022-07-29T03:18:06;2.02;;;1.60;;
8544;SDS011;4310;51.054;6.994;2022-07-29T03:19:10;2.13;;;1.60;;
8544;SDS011;4310;51.054;6.994;2022-07-29T03:20:14;3.75;;;2.20;;
8544;SDS011;4310;51.054;6.994;2022-07-29T03:22:29;4.25;;;1.90;;
8544;SDS011;4310;51.054;6.994;2022-07-29T03:23:33;2.72;;;1.70;;
8544;SDS011;4310;51.054;6.994;2022-07-29T03:24:37;4.30;;;1.90;;
8544;SDS011;4310;51.054;6.994;2022-07-29T03:25:41;3.60;;;1.90;;
8544;SDS011;4310;51.054;6.994;2022-07-29T03:26:46;3.52;;;1.90;;
8544;SDS011;4310;51.054;6.994;2022-07-29T03:27:50;3.83;;;1.80;;
8544;SDS011;4310;51.054;6.994;2022-07-29T03:28:53;3.20;;;1.60;;
8544;SDS011;4310;51.054;6.994;2022-07-29T03:29:57;2.62;;;1.70;;
8544;SDS011;4310;51.054;6.994;2022-07-29T03:31:01;4.35;;;1.90;;
8544;SDS011;4310;51.054;6.994;2022-07-29T03:32:06;2.67;;;1.70;;
8544;SDS011;4310;51.054;6.994;2022-07-29T03:33:10;4.78;;;1.90;;
8544;SDS011;4310;51.054;6.994;2022-07-29T03:34:13;2.95;;;1.90;;
8544;SDS011;4310;51.054;6.994;2022-07-29T03:35:17;3.35;;;1.95;;
8544;SDS011;4310;51.054;6.994;2022-07-29T03:36:21;3.22;;;1.57;;
8544;SDS011;4310;51.054;6.994;2022-07-29T03:37:25;3.30;;;1.80;;
8544;SDS011;4310;51.054;6.994;2022-07-29T03:38:29;3.22;;;2.10;;
8544;SDS011;4310;51.054;6.994;2022-07-29T03:39:35;3.80;;;1.60;;
8544;SDS011;4310;51.054;6.994;2022-07-29T03:40:40;3.12;;;2.00;;
8544;SDS011;4310;51.054;6.994;2022-07-29T03:41:45;3.77;;;1.85;;
8544;SDS011;4310;51.054;6.994;2022-07-29T03:42:50;2.95;;;1.70;;
8544;SDS011;4310;51.054;6.994;2022-07-29T03:43:55;4.55;;;1.90;;
8544;SDS011;4310;51.054;6.994;2022-07-29T03:46:11;4.45;;;1.90;;
8544;SDS011;4310;51.054;6.994;2022-07-29T03:47:17;3.22;;;1.80;;
8544;SDS011;4310;51.054;6.994;2022-07-29T03:48:22;4.10;;;1.87;;
8544;SDS011;4310;51.054;6.994;2022-07-29T03:49:27;3.27;;;1.80;;
8544;SDS011;4310;51.054;6.994;2022-07-29T03:50:31;3.17;;;1.90;;
8544;SDS011;4310;51.054;6.994;2022-07-29T03:51:36;4.55;;;2.17;;
8544;SDS011;4310;51.054;6.994;2022-07-29T03:52:41;3.62;;;1.87;;
8544;SDS011;4310;51.054;6.994;2022-07-29T03:53:45;3.08;;;2.00;;
8544;SDS011;4310;51.054;6.994;2022-07-29T03:54:48;5.03;;;2.02;;
8544;SDS011;4310;51.054;6.994;2022-07-29T03:55:54;4.25;;;2.17;;
8544;SDS011;4310;51.054;6.994;2022-07-29T03:56:58;5.20;;;2.40;;
8544;SDS011;4310;51.054;6.994;2022-07-29T03:58:03;3.92;;;2.20;;
8544;SDS011;4310;51.054;6.994;2022-07-29T03:59:07;3.52;;;2.08;;
8544;SDS011;4310;51.054;6.994;2022-07-29T04:00:11;6.08;;;2.33;;
8544;SDS011;4310;51.054;6.994;2022-07-29T04:01:15;6.75;;;2.12;;
8544;SDS011;4310;51.054;6.994;2022-07-29T04:03:31;6.60;;;2.25;;
8544;SDS011;4310;51.054;6.994;2022-07-29T04:04:35;4.08;;;2.22;;
8544;SDS011;4310;51.054;6.994;2022-07-29T04:05:39;4.58;;;2.30;;
8544;SDS011;4310;51.054;6.994;2022-07-29T04:06:43;5.25;;;2.20;;
8544;SDS011;4310;51.054;6.994;2022-07-29T04:08:58;4.20;;;2.30;;
8544;SDS011;4310;51.054;6.994;2022-07-29T04:10:02;3.87;;;2.50;;
8544;SDS011;4310;51.054;6.994;2022-07-29T04:11:06;3.85;;;2.42;;
8544;SDS011;4310;51.054;6.994;2022-07-29T04:12:10;4.22;;;2.20;;
8544;SDS011;4310;51.054;6.994;2022-07-29T04:13:14;4.75;;;2.50;;
8544;SDS011;4310;51.054;6.994;2022-07-29T04:14:18;7.05;;;2.37;;
8544;SDS011;4310;51.054;6.994;2022-07-29T04:15:22;5.00;;;1.80;;
8544;SDS011;4310;51.054;6.994;2022-07-29T04:16:26;3.87;;;2.08;;
8544;SDS011;4310;51.054;6.994;2022-07-29T04:17:30;2.85;;;2.00;;
8544;SDS011;4310;51.054;6.994;2022-07-29T04:18:34;4.90;;;2.20;;
8544;SDS011;4310;51.054;6.994;2022-07-29T04:19:37;5.25;;;2.08;;
8544;SDS011;4310;51.054;6.994;2022-07-29T04:20:41;3.50;;;2.10;;
8544;SDS011;4310;51.054;6.994;2022-07-29T04:21:45;2.87;;;2.10;;
8544;SDS011;4310;51.054;6.994;2022-07-29T04:22:49;4.42;;;2.25;;
8544;SDS011;4310;51.054;6.994;2022-07-29T04:23:52;3.45;;;1.90;;
8544;SDS011;4310;51.054;6.994;2022-07-29T04:24:56;3.08;;;2.08;;
8544;SDS011;4310;51.054;6.994;2022-07-29T04:26:00;4.10;;;2.15;;
8544;SDS011;4310;51.054;6.994;2022-07-29T04:27:04;4.37;;;1.90;;
8544;SDS011;4310;51.054;6.994;2022-07-29T04:28:08;3.72;;;1.95;;
8544;SDS011;4310;51.054;6.994;2022-07-29T04:29:12;3.25;;;2.08;;
8544;SDS011;4310;51.054;6.994;2022-07-29T04:30:16;6.15;;;2.10;;
8544;SDS011;4310;51.054;6.994;2022-07-29T04:31:20;4.40;;;2.20;;
8544;SDS011;4310;51.054;6.994;2022-07-29T04:32:24;3.83;;;2.10;;
8544;SDS011;4310;51.054;6.994;2022-07-29T04:33:28;3.85;;;1.90;;
8544;SDS011;4310;51.054;6.994;2022-07-29T04:34:32;2.42;;;1.75;;
8544;SDS011;4310;51.054;6.994;2022-07-29T04:35:36;3.47;;;2.10;;
8544;SDS011;4310;51.054;6.994;2022-07-29T04:36:40;2.95;;;2.08;;
8544;SDS011;4310;51.054;6.994;2022-07-29T04:37:44;3.65;;;2.05;;
8544;SDS011;4310;51.054;6.994;2022-07-29T04:38:48;2.75;;;1.92;;
8544;SDS011;4310;51.054;6.994;2022-07-29T04:39:53;3.22;;;1.90;;
8544;SDS011;4310;51.054;6.994;2022-07-29T04:40:56;5.58;;;1.87;;
8544;SDS011;4310;51.054;6.994;2022-07-29T04:42:00;3.75;;;2.10;;
8544;SDS011;4310;51.054;6.994;2022-07-29T04:43:04;3.77;;;2.10;;
8544;SDS011;4310;51.054;6.994;2022-07-29T04:44:08;4.92;;;2.10;;
8544;SDS011;4310;51.054;6.994;2022-07-29T04:45:12;4.27;;;2.30;;
8544;SDS011;4310;51.054;6.994;2022-07-29T04:46:16;6.62;;;2.40;;
8544;SDS011;4310;51.054;6.994;2022-07-29T04:47:19;4.85;;;2.00;;
8544;SDS011;4310;51.054;6.994;2022-07-29T04:48:23;3.92;;;2.00;;
8544;SDS011;4310;51.054;6.994;2022-07-29T04:49:27;3.35;;;1.80;;
8544;SDS011;4310;51.054;6.994;2022-07-29T04:50:31;4.70;;;2.30;;
8544;SDS011;4310;51.054;6.994;2022-07-29T04:51:35;4.08;;;2.08;;
8544;SDS011;4310;51.054;6.994;2022-07-29T04:52:42;3.42;;;2.08;;
8544;SDS011;4310;51.054;6.994;2022-07-29T04:53:46;3.08;;;1.90;;
8544;SDS011;4310;51.054;6.994;2022-07-29T04:54:50;3.80;;;2.30;;
8544;SDS011;4310;51.054;6.994;2022-07-29T04:57:05;4.17;;;2.02;;
8544;SDS011;4310;51.054;6.994;2022-07-29T04:59:20;3.55;;;2.20;;
8544;SDS011;4310;51.054;6.994;2022-07-29T05:00:24;4.80;;;2.20;;
8544;SDS011;4310;51.054;6.994;2022-07-29T05:01:28;3.25;;;1.80;;
8544;SDS011;4310;51.054;6.994;2022-07-29T05:02:32;4.62;;;2.30;;
8544;SDS011;4310;51.054;6.994;2022-07-29T05:03:36;3.87;;;2.00;;
8544;SDS011;4310;51.054;6.994;2022-07-29T05:04:40;4.70;;;2.12;;
8544;SDS011;4310;51.054;6.994;2022-07-29T05:05:44;4.00;;;2.02;;
8544;SDS011;4310;51.054;6.994;2022-07-29T05:06:48;5.20;;;2.05;;
8544;SDS011;4310;51.054;6.994;2022-07-29T05:07:51;7.08;;;2.25;;
8544;SDS011;4310;51.054;6.994;2022-07-29T05:08:55;4.92;;;2.20;;
8544;SDS011;4310;51.054;6.994;2022-07-29T05:09:59;4.67;;;2.00;;
8544;SDS011;4310;51.054;6.994;2022-07-29T05:11:03;5.90;;;2.12;;
8544;SDS011;4310;51.054;6.994;2022-07-29T05:13:18;4.15;;;2.10;;
8544;SDS011;4310;51.054;6.994;2022-07-29T05:14:23;4.80;;;2.20;;
8544;SDS011;4310;51.054;6.994;2022-07-29T05:15:27;4.40;;;2.27;;
8544;SDS011;4310;51.054;6.994;2022-07-29T05:16:30;4.35;;;2.30;;
8544;SDS011;4310;51.054;6.994;2022-07-29T05:17:34;7.28;;;2.35;;
8544;SDS011;4310;51.054;6.994;2022-07-29T05:18:38;3.70;;;1.82;;
8544;SDS011;4310;51.054;6.994;2022-07-29T05:20:53;3.60;;;1.80;;
8544;SDS011;4310;51.054;6.994;2022-07-29T05:21:57;3.65;;;1.82;;
8544;SDS011;4310;51.054;6.994;2022-07-29T05:23:02;4.35;;;1.98;;
8544;SDS011;4310;51.054;6.994;2022-07-29T05:24:06;5.67;;;1.90;;
8544;SDS011;4310;51.054;6.994;2022-07-29T05:25:10;5.10;;;2.02;;
8544;SDS011;4310;51.054;6.994;2022-07-29T05:26:14;6.10;;;2.20;;
8544;SDS011;4310;51.054;6.994;2022-07-29T05:27:18;5.30;;;2.10;;
8544;SDS011;4310;51.054;6.994;2022-07-29T05:28:21;6.37;;;2.27;;
8544;SDS011;4310;51.054;6.994;2022-07-29T05:30:36;5.50;;;2.27;;
8544;SDS011;4310;51.054;6.994;2022-07-29T05:31:40;5.12;;;2.17;;
8544;SDS011;4310;51.054;6.994;2022-07-29T05:33:56;3.83;;;1.80;;
8544;SDS011;4310;51.054;6.994;2022-07-29T05:34:59;7.08;;;2.20;;
8544;SDS011;4310;51.054;6.994;2022-07-29T05:36:04;7.78;;;2.00;;
8544;SDS011;4310;51.054;6.994;2022-07-29T05:38:20;3.30;;;2.00;;
8544;SDS011;4310;51.054;6.994;2022-07-29T05:39:24;4.15;;;2.10;;
8544;SDS011;4310;51.054;6.994;2022-07-29T05:40:28;4.78;;;1.77;;
8544;SDS011;4310;51.054;6.994;2022-07-29T05:41:32;5.10;;;2.45;;
8544;SDS011;4310;51.054;6.994;2022-07-29T05:42:35;3.47;;;2.10;;
8544;SDS011;4310;51.054;6.994;2022-07-29T05:43:39;5.35;;;2.05;;
8544;SDS011;4310;51.054;6.994;2022-07-29T05:44:43;3.98;;;2.00;;
8544;SDS011;4310;51.054;6.994;2022-07-29T05:45:47;4.28;;;2.08;;
8544;SDS011;4310;51.054;6.994;2022-07-29T05:46:50;4.07;;;2.00;;
8544;SDS011;4310;51.054;6.994;2022-07-29T05:47:54;5.65;;;2.17;;
8544;SDS011;4310;51.054;6.994;2022-07-29T05:48:59;3.90;;;2.65;;
8544;SDS011;4310;51.054;6.994;2022-07-29T05:50:04;6.05;;;2.20;;
8544;SDS011;4310;51.054;6.994;2022-07-29T05:51:08;5.55;;;2.70;;
8544;SDS011;4310;51.054;6.994;2022-07-29T05:52:12;4.42;;;2.05;;
8544;SDS011;4310;51.054;6.994;2022-07-29T05:53:16;3.58;;;2.17;;
8544;SDS011;4310;51.054;6.994;2022-07-29T05:54:20;5.00;;;2.05;;
8544;SDS011;4310;51.054;6.994;2022-07-29T05:55:24;7.25;;;2.40;;
8544;SDS011;4310;51.054;6.994;2022-07-29T05:57:39;8.55;;;2.80;;
8544;SDS011;4310;51.054;6.994;2022-07-29T05:58:43;3.67;;;1.95;;
8544;SDS011;4310;51.054;6.994;2022-07-29T05:59:47;3.35;;;2.20;;
8544;SDS011;4310;51.054;6.994;2022-07-29T06:00:51;4.62;;;1.90;;
8544;SDS011;4310;51.054;6.994;2022-07-29T06:01:55;3.08;;;1.72;;
8544;SDS011;4310;51.054;6.994;2022-07-29T06:02:59;5.78;;;2.00;;
8544;SDS011;4310;51.054;6.994;2022-07-29T06:04:03;4.53;;;1.90;;
8544;SDS011;4310;51.054;6.994;2022-07-29T06:05:07;5.87;;;2.10;;
8544;SDS011;4310;51.054;6.994;2022-07-29T06:06:11;3.10;;;1.80;;
8544;SDS011;4310;51.054;6.994;2022-07-29T06:07:15;4.00;;;1.92;;
8544;SDS011;4310;51.054;6.994;2022-07-29T06:08:19;3.20;;;1.92;;
8544;SDS011;4310;51.054;6.994;2022-07-29T06:09:23;3.58;;;1.80;;
8544;SDS011;4310;51.054;6.994;2022-07-29T06:10:27;5.08;;;2.00;;
8544;SDS011;4310;51.054;6.994;2022-07-29T06:11:30;4.10;;;1.90;;
8544;SDS011;4310;51.054;6.994;2022-07-29T06:12:34;4.65;;;2.00;;
8544;SDS011;4310;51.054;6.994;2022-07-29T06:13:38;3.62;;;1.80;;
8544;SDS011;4310;51.054;6.994;2022-07-29T06:14:42;3.30;;;1.67;;
8544;SDS011;4310;51.054;6.994;2022-07-29T06:15:45;5.53;;;2.10;;
8544;SDS011;4310;51.054;6.994;2022-07-29T06:16:49;4.62;;;1.90;;
8544;SDS011;4310;51.054;6.994;2022-07-29T06:19:04;4.20;;;1.92;;
8544;SDS011;4310;51.054;6.994;2022-07-29T06:20:09;2.70;;;1.72;;
8544;SDS011;4310;51.054;6.994;2022-07-29T06:21:13;4.20;;;1.92;;
8544;SDS011;4310;51.054;6.994;2022-07-29T06:22:17;4.55;;;2.15;;
8544;SDS011;4310;51.054;6.994;2022-07-29T06:23:21;4.58;;;1.77;;
8544;SDS011;4310;51.054;6.994;2022-07-29T06:24:24;3.83;;;2.15;;
8544;SDS011;4310;51.054;6.994;2022-07-29T06:25:28;5.75;;;2.00;;
8544;SDS011;4310;51.054;6.994;2022-07-29T06:26:32;5.28;;;2.02;;
8544;SDS011;4310;51.054;6.994;2022-07-29T06:27:36;4.30;;;2.00;;
8544;SDS011;4310;51.054;6.994;2022-07-29T06:28:40;3.72;;;1.72;;
8544;SDS011;4310;51.054;6.994;2022-07-29T06:29:44;2.90;;;1.92;;
8544;SDS011;4310;51.054;6.994;2022-07-29T06:30:47;4.87;;;1.60;;
8544;SDS011;4310;51.054;6.994;2022-07-29T06:31:51;2.37;;;1.70;;
8544;SDS011;4310;51.054;6.994;2022-07-29T06:32:55;4.42;;;1.82;;
8544;SDS011;4310;51.054;6.994;2022-07-29T06:33:59;3.23;;;1.90;;
8544;SDS011;4310;51.054;6.994;2022-07-29T06:35:03;5.47;;;1.80;;
8544;SDS011;4310;51.054;6.994;2022-07-29T06:36:08;6.10;;;1.90;;
8544;SDS011;4310;51.054;6.994;2022-07-29T06:37:12;5.75;;;2.00;;
8544;SDS011;4310;51.054;6.994;2022-07-29T06:38:16;3.10;;;1.72;;
8544;SDS011;4310;51.054;6.994;2022-07-29T06:40:31;5.12;;;2.00;;
8544;SDS011;4310;51.054;6.994;2022-07-29T06:41:53;4.12;;;2.00;;
8544;SDS011;4310;51.054;6.994;2022-07-29T06:42:57;2.50;;;1.72;;
8544;SDS011;4310;51.054;6.994;2022-07-29T06:44:01;3.83;;;1.77;;
8544;SDS011;4310;51.054;6.994;2022-07-29T06:45:05;4.05;;;2.10;;
8544;SDS011;4310;51.054;6.994;2022-07-29T06:46:10;2.87;;;1.75;;
8544;SDS011;4310;51.054;6.994;2022-07-29T06:47:14;4.67;;;1.80;;
8544;SDS011;4310;51.054;6.994;2022-07-29T06:49:30;5.65;;;1.90;;
8544;SDS011;4310;51.054;6.994;2022-07-29T06:50:33;3.22;;;1.80;;
8544;SDS011;4310;51.054;6.994;2022-07-29T06:51:37;4.92;;;1.87;;
8544;SDS011;4310;51.054;6.994;2022-07-29T06:52:41;3.00;;;1.67;;
8544;SDS011;4310;51.054;6.994;2022-07-29T06:53:45;3.40;;;1.85;;
8544;SDS011;4310;51.054;6.994;2022-07-29T06:54:48;4.70;;;1.95;;
8544;SDS011;4310;51.054;6.994;2022-07-29T06:55:52;3.85;;;1.95;;
8544;SDS011;4310;51.054;6.994;2022-07-29T06:56:56;3.92;;;2.02;;
8544;SDS011;4310;51.054;6.994;2022-07-29T06:58:01;4.20;;;1.67;;
8544;SDS011;4310;51.054;6.994;2022-07-29T06:59:06;4.45;;;2.02;;
8544;SDS011;4310;51.054;6.994;2022-07-29T07:00:11;4.25;;;2.00;;
8544;SDS011;4310;51.054;6.994;2022-07-29T07:01:15;3.08;;;1.77;;
8544;SDS011;4310;51.054;6.994;2022-07-29T07:02:19;7.12;;;1.92;;
8544;SDS011;4310;51.054;6.994;2022-07-29T07:03:23;4.55;;;1.85;;
8544;SDS011;4310;51.054;6.994;2022-07-29T07:04:27;3.95;;;2.10;;
8544;SDS011;4310;51.054;6.994;2022-07-29T07:05:31;2.80;;;1.90;;
8544;SDS011;4310;51.054;6.994;2022-07-29T07:06:35;5.60;;;1.70;;
8544;SDS011;4310;51.054;6.994;2022-07-29T07:07:38;3.83;;;1.92;;
8544;SDS011;4310;51.054;6.994;2022-07-29T07:08:42;4.17;;;2.00;;
8544;SDS011;4310;51.054;6.994;2022-07-29T07:09:46;4.72;;;1.90;;
8544;SDS011;4310;51.054;6.994;2022-07-29T07:10:50;5.50;;;1.77;;
8544;SDS011;4310;51.054;6.994;2022-07-29T07:11:53;5.80;;;1.90;;
8544;SDS011;4310;51.054;6.994;2022-07-29T07:12:57;4.58;;;2.20;;
8544;SDS011;4310;51.054;6.994;2022-07-29T07:15:12;3.85;;;1.87;;
8544;SDS011;4310;51.054;6.994;2022-07-29T07:16:16;6.20;;;1.90;;
8544;SDS011;4310;51.054;6.994;2022-07-29T07:17:20;4.17;;;2.00;;
8544;SDS011;4310;51.054;6.994;2022-07-29T07:18:24;4.53;;;2.17;;
8544;SDS011;4310;51.054;6.994;2022-07-29T07:19:27;3.85;;;2.30;;
8544;SDS011;4310;51.054;6.994;2022-07-29T07:20:31;7.95;;;5.60;;